Aérodrome :
LOGIN :

S'inscrire | Disclaimer

   EN    FR    IT 

 










Légende :    VFR   VFR Marginal   IFR   IFR Intensif   IFR Très Intensif
Visi : 
Plafond : 
>= 8 km
>= 3000ft
5 à 8 km
1000 à 3000 ft
1500m à 5 km
500 à 1000 ft
800 à 1500m
200 à 500 ft
< 800m
< 200 ft
Symboles :   Orages  Brouillard  Fortes neiges  Fortes précipitations  Vent > 20 kt
SIGMETs :   Divers  Orages  Givrage  Turbulence  Onde Orograph.  Cendres Volcan.







- Altitude de l'aérodrome : 896 ft
- Code IATA : INZ


DAUI - in Salah

DERNIER METAR :
  • 220300Z 03015KT 6000 NSC 33/11 Q1009

METARs EXPIRÉS :
  • 220200Z 06008KT 6000 NSC 33/11 Q1009
  • 220100Z 06008KT 6000 NSC 34/11 Q1009
  • 220000Z 08010KT 6000 NSC 34/10 Q1009

TAF TAF DAUI
Valide du 22 à 00h jusqu'au 23 à 00h UTC


212300Z 2200/2224 06010KT 6000 FEW046
PROB30
TEMPO 2200/2204 4000 HZ
PROB40
TEMPO 2208/2212 08022KT 3000 DRSA
BECMG 2212/2215 12010KT
BECMG 2220/2223 06012KT
Pas de NOTAMs connus pour ce terrain.
2 SIGMETs publiés pour la FIR Alger (DAAA) :
 
Orages noyés dans la masse
DAAA SIGMET 2 VALID 220200/220500 DAMM
DAAA ALGER FIR EMBD TS OBS WI N3459 E00450 - N3116 E00450 - N3116 E00003 - N3459 E00450 - TOP FL380 MOV E NC=
Orages noyés dans la masse
DAAA SIGMET 1 VALID 220200/220500 DAMM
DAAA ALGER FIR EMBD TS OBS W OF LINE N3206 W00106 - N3000 W0106 - TOP FL360 STNR NC=



MET'MAP, la Météo Aéronautique d'un coup d'oeil ! - Copyright ORBIFLY Décembre 2007 - Disclaimer

ORBIFLY MET'MAP TEAM :

Programmation & Développement : Alexandra Zaïnal
Conception & Développement : Baudouin d'Aumeries
Co-Programmation & Développement : Marc-Olivier Méhu
Soutien technique & logistique : Manuel Goepfert

Contact : metmap@orbifly.com




SOURCES & CREDITS :

   NOAA